sensor_id;sensor_type;location;lat;lon;timestamp;temperature;humidity
64012;DHT22;50211;52.768;12.124;2023-04-05T00:00:20;0.40;99.90
64012;DHT22;50211;52.768;12.124;2023-04-05T00:02:46;0.40;99.90
64012;DHT22;50211;52.768;12.124;2023-04-05T00:05:11;0.30;99.90
64012;DHT22;50211;52.768;12.124;2023-04-05T00:07:37;0.30;99.90
64012;DHT22;50211;52.768;12.124;2023-04-05T00:10:03;0.40;99.90
64012;DHT22;50211;52.768;12.124;2023-04-05T00:12:28;0.50;99.90
64012;DHT22;50211;52.768;12.124;2023-04-05T00:14:54;0.50;99.90
64012;DHT22;50211;52.768;12.124;2023-04-05T00:17:19;0.50;99.90
64012;DHT22;50211;52.768;12.124;2023-04-05T00:19:45;0.50;99.90
64012;DHT22;50211;52.768;12.124;2023-04-05T00:22:15;0.50;99.90
64012;DHT22;50211;52.768;12.124;2023-04-05T00:24:49;0.50;99.90
64012;DHT22;50211;52.768;12.124;2023-04-05T00:27:15;0.40;99.90
64012;DHT22;50211;52.768;12.124;2023-04-05T00:29:40;0.40;99.90
64012;DHT22;50211;52.768;12.124;2023-04-05T00:32:06;0.40;99.90
64012;DHT22;50211;52.768;12.124;2023-04-05T00:34:31;0.40;99.90
64012;DHT22;50211;52.768;12.124;2023-04-05T00:36:58;0.40;99.90
64012;DHT22;50211;52.768;12.124;2023-04-05T00:39:23;0.40;99.90
64012;DHT22;50211;52.768;12.124;2023-04-05T00:41:49;0.40;99.90
64012;DHT22;50211;52.768;12.124;2023-04-05T00:44:14;0.40;99.90
64012;DHT22;50211;52.768;12.124;2023-04-05T00:46:40;0.40;99.90
64012;DHT22;50211;52.768;12.124;2023-04-05T00:49:06;0.40;99.90
64012;DHT22;50211;52.768;12.124;2023-04-05T00:51:32;0.40;99.90
64012;DHT22;50211;52.768;12.124;2023-04-05T00:53:59;0.40;99.90
64012;DHT22;50211;52.768;12.124;2023-04-05T00:56:25;0.30;99.90
64012;DHT22;50211;52.768;12.124;2023-04-05T00:58:50;0.40;99.90
64012;DHT22;50211;52.768;12.124;2023-04-05T01:01:18;0.30;99.90
64012;DHT22;50211;52.768;12.124;2023-04-05T01:03:48;0.30;99.90
64012;DHT22;50211;52.768;12.124;2023-04-05T01:06:43;0.20;99.90
64012;DHT22;50211;52.768;12.124;2023-04-05T01:09:36;0.20;99.90
64012;DHT22;50211;52.768;12.124;2023-04-05T01:12:05;0.10;99.90
64012;DHT22;50211;52.768;12.124;2023-04-05T01:14:41;0.00;99.90
64012;DHT22;50211;52.768;12.124;2023-04-05T01:17:07;-0.20;99.90
64012;DHT22;50211;52.768;12.124;2023-04-05T01:19:34;-0.20;99.90
64012;DHT22;50211;52.768;12.124;2023-04-05T01:30:40;-0.50;99.90
64012;DHT22;50211;52.768;12.124;2023-04-05T01:36:00;-0.50;99.90
64012;DHT22;50211;52.768;12.124;2023-04-05T01:38:29;-0.50;99.90
64012;DHT22;50211;52.768;12.124;2023-04-05T01:40:56;-0.40;99.90
64012;DHT22;50211;52.768;12.124;2023-04-05T01:43:21;-0.50;99.90
64012;DHT22;50211;52.768;12.124;2023-04-05T01:45:47;-0.40;99.90
64012;DHT22;50211;52.768;12.124;2023-04-05T01:48:13;-0.30;99.90
64012;DHT22;50211;52.768;12.124;2023-04-05T01:50:39;-0.40;99.90
64012;DHT22;50211;52.768;12.124;2023-04-05T01:53:06;-0.40;99.90
64012;DHT22;50211;52.768;12.124;2023-04-05T01:55:32;-0.40;99.90
64012;DHT22;50211;52.768;12.124;2023-04-05T01:57:57;-0.30;99.90
64012;DHT22;50211;52.768;12.124;2023-04-05T02:00:23;-0.30;99.90
64012;DHT22;50211;52.768;12.124;2023-04-05T02:02:48;-0.40;99.90
64012;DHT22;50211;52.768;12.124;2023-04-05T02:05:14;-0.60;99.90
64012;DHT22;50211;52.768;12.124;2023-04-05T02:07:40;-0.60;99.90
64012;DHT22;50211;52.768;12.124;2023-04-05T02:10:06;-0.70;99.90
64012;DHT22;50211;52.768;12.124;2023-04-05T02:12:32;-0.60;99.90
64012;DHT22;50211;52.768;12.124;2023-04-05T02:14:57;-0.60;99.90
64012;DHT22;50211;52.768;12.124;2023-04-05T02:17:23;-0.50;99.90
64012;DHT22;50211;52.768;12.124;2023-04-05T02:19:49;-0.50;99.90
64012;DHT22;50211;52.768;12.124;2023-04-05T02:22:17;-0.40;99.90
64012;DHT22;50211;52.768;12.124;2023-04-05T02:24:43;-0.40;99.90
64012;DHT22;50211;52.768;12.124;2023-04-05T02:27:09;-0.40;99.90
64012;DHT22;50211;52.768;12.124;2023-04-05T02:29:35;-0.40;99.90
64012;DHT22;50211;52.768;12.124;2023-04-05T02:32:00;-0.50;99.90
64012;DHT22;50211;52.768;12.124;2023-04-05T02:34:26;-0.70;99.90
64012;DHT22;50211;52.768;12.124;2023-04-05T02:36:52;-0.70;99.90
64012;DHT22;50211;52.768;12.124;2023-04-05T02:39:18;-0.80;99.90
64012;DHT22;50211;52.768;12.124;2023-04-05T02:41:45;-0.80;99.90
64012;DHT22;50211;52.768;12.124;2023-04-05T02:44:11;-0.70;99.90
64012;DHT22;50211;52.768;12.124;2023-04-05T02:46:37;-0.70;99.90
64012;DHT22;50211;52.768;12.124;2023-04-05T02:49:02;-0.70;99.90
64012;DHT22;50211;52.768;12.124;2023-04-05T02:51:28;-0.70;99.90
64012;DHT22;50211;52.768;12.124;2023-04-05T02:53:53;-0.60;99.90
64012;DHT22;50211;52.768;12.124;2023-04-05T02:56:19;-0.60;99.90
64012;DHT22;50211;52.768;12.124;2023-04-05T02:58:46;-0.70;99.90
64012;DHT22;50211;52.768;12.124;2023-04-05T03:01:14;-0.70;99.90
64012;DHT22;50211;52.768;12.124;2023-04-05T03:03:42;-0.70;99.90
64012;DHT22;50211;52.768;12.124;2023-04-05T03:06:07;-0.80;99.90
64012;DHT22;50211;52.768;12.124;2023-04-05T03:08:38;-0.80;99.90
64012;DHT22;50211;52.768;12.124;2023-04-05T03:11:08;-1.00;99.90
64012;DHT22;50211;52.768;12.124;2023-04-05T03:13:34;-1.10;99.90
64012;DHT22;50211;52.768;12.124;2023-04-05T03:16:01;-1.10;99.90
64012;DHT22;50211;52.768;12.124;2023-04-05T03:18:26;-1.20;99.90
64012;DHT22;50211;52.768;12.124;2023-04-05T03:20:54;-1.20;99.90
64012;DHT22;50211;52.768;12.124;2023-04-05T03:23:24;-1.10;99.90
64012;DHT22;50211;52.768;12.124;2023-04-05T03:26:00;-1.20;99.90
64012;DHT22;50211;52.768;12.124;2023-04-05T03:28:28;-1.20;99.90
64012;DHT22;50211;52.768;12.124;2023-04-05T03:30:54;-1.20;99.90
64012;DHT22;50211;52.768;12.124;2023-04-05T03:33:20;-1.10;99.90
64012;DHT22;50211;52.768;12.124;2023-04-05T03:35:46;-1.20;99.90
64012;DHT22;50211;52.768;12.124;2023-04-05T03:38:11;-1.20;99.90
64012;DHT22;50211;52.768;12.124;2023-04-05T03:40:37;-1.30;99.90
64012;DHT22;50211;52.768;12.124;2023-04-05T03:43:03;-1.40;99.90
64012;DHT22;50211;52.768;12.124;2023-04-05T03:45:28;-1.40;99.90
64012;DHT22;50211;52.768;12.124;2023-04-05T03:47:54;-1.40;99.90
64012;DHT22;50211;52.768;12.124;2023-04-05T03:50:20;-1.30;99.90
64012;DHT22;50211;52.768;12.124;2023-04-05T03:52:45;-1.30;99.90
64012;DHT22;50211;52.768;12.124;2023-04-05T03:55:11;-1.30;99.90
64012;DHT22;50211;52.768;12.124;2023-04-05T03:57:39;-1.30;99.90
64012;DHT22;50211;52.768;12.124;2023-04-05T04:00:05;-1.40;99.90
64012;DHT22;50211;52.768;12.124;2023-04-05T04:02:41;-1.30;99.90
64012;DHT22;50211;52.768;12.124;2023-04-05T04:05:07;-1.30;99.90
64012;DHT22;50211;52.768;12.124;2023-04-05T04:07:33;-1.20;99.90
64012;DHT22;50211;52.768;12.124;2023-04-05T04:09:58;-1.20;99.90
64012;DHT22;50211;52.768;12.124;2023-04-05T04:12:24;-1.20;99.90
64012;DHT22;50211;52.768;12.124;2023-04-05T04:14:49;-1.20;99.90
64012;DHT22;50211;52.768;12.124;2023-04-05T04:17:28;-1.10;99.90
64012;DHT22;50211;52.768;12.124;2023-04-05T04:19:55;-1.20;99.90
64012;DHT22;50211;52.768;12.124;2023-04-05T04:22:21;-1.30;99.90
64012;DHT22;50211;52.768;12.124;2023-04-05T04:24:48;-1.30;99.90
64012;DHT22;50211;52.768;12.124;2023-04-05T04:27:15;-1.20;99.90
64012;DHT22;50211;52.768;12.124;2023-04-05T04:29:42;-1.20;99.90
64012;DHT22;50211;52.768;12.124;2023-04-05T04:32:17;-1.20;99.90
64012;DHT22;50211;52.768;12.124;2023-04-05T04:34:50;-1.10;99.90
64012;DHT22;50211;52.768;12.124;2023-04-05T04:37:20;-1.10;99.90
64012;DHT22;50211;52.768;12.124;2023-04-05T04:39:47;-1.10;99.90
64012;DHT22;50211;52.768;12.124;2023-04-05T04:42:16;-1.10;99.90
64012;DHT22;50211;52.768;12.124;2023-04-05T04:44:47;-1.10;99.90
64012;DHT22;50211;52.768;12.124;2023-04-05T04:47:13;-1.20;99.90
64012;DHT22;50211;52.768;12.124;2023-04-05T04:49:42;-1.20;99.90
64012;DHT22;50211;52.768;12.124;2023-04-05T04:52:07;-1.30;99.90
64012;DHT22;50211;52.768;12.124;2023-04-05T04:54:34;-1.20;99.90
64012;DHT22;50211;52.768;12.124;2023-04-05T04:57:00;-1.20;99.90
64012;DHT22;50211;52.768;12.124;2023-04-05T04:59:27;-1.20;99.90
64012;DHT22;50211;52.768;12.124;2023-04-05T05:01:52;-1.10;99.90
64012;DHT22;50211;52.768;12.124;2023-04-05T05:04:18;-1.10;99.90
64012;DHT22;50211;52.768;12.124;2023-04-05T05:06:43;-1.10;99.90
64012;DHT22;50211;52.768;12.124;2023-04-05T05:09:09;-1.00;99.90
64012;DHT22;50211;52.768;12.124;2023-04-05T05:11:35;-1.00;99.90
64012;DHT22;50211;52.768;12.124;2023-04-05T05:14:00;-0.90;99.90
64012;DHT22;50211;52.768;12.124;2023-04-05T05:16:26;-0.80;99.90
64012;DHT22;50211;52.768;12.124;2023-04-05T05:18:52;-0.80;99.90
64012;DHT22;50211;52.768;12.124;2023-04-05T05:21:18;-0.90;99.90
64012;DHT22;50211;52.768;12.124;2023-04-05T05:23:44;-0.80;99.90
64012;DHT22;50211;52.768;12.124;2023-04-05T05:26:10;-0.80;99.90
64012;DHT22;50211;52.768;12.124;2023-04-05T05:28:37;-0.70;99.90
64012;DHT22;50211;52.768;12.124;2023-04-05T05:31:03;-0.70;99.90
64012;DHT22;50211;52.768;12.124;2023-04-05T05:33:28;-0.70;99.90
64012;DHT22;50211;52.768;12.124;2023-04-05T05:35:54;-0.60;99.90
64012;DHT22;50211;52.768;12.124;2023-04-05T05:38:19;-0.60;99.90
64012;DHT22;50211;52.768;12.124;2023-04-05T05:40:46;-0.50;99.90
64012;DHT22;50211;52.768;12.124;2023-04-05T05:43:11;-0.40;99.90
64012;DHT22;50211;52.768;12.124;2023-04-05T05:45:37;-0.40;99.90
64012;DHT22;50211;52.768;12.124;2023-04-05T05:48:03;-0.40;99.90
64012;DHT22;50211;52.768;12.124;2023-04-05T05:50:28;-0.30;99.90
64012;DHT22;50211;52.768;12.124;2023-04-05T05:52:57;-0.30;99.90
64012;DHT22;50211;52.768;12.124;2023-04-05T05:55:23;-0.20;99.90
64012;DHT22;50211;52.768;12.124;2023-04-05T05:57:48;-0.10;99.90
64012;DHT22;50211;52.768;12.124;2023-04-05T06:00:14;-0.10;99.90
64012;DHT22;50211;52.768;12.124;2023-04-05T06:02:40;0.00;99.90
64012;DHT22;50211;52.768;12.124;2023-04-05T06:05:06;0.00;99.90
64012;DHT22;50211;52.768;12.124;2023-04-05T06:07:34;0.10;99.90
64012;DHT22;50211;52.768;12.124;2023-04-05T06:10:00;0.10;99.90
64012;DHT22;50211;52.768;12.124;2023-04-05T06:12:26;0.20;99.90
64012;DHT22;50211;52.768;12.124;2023-04-05T06:14:51;0.30;99.90
64012;DHT22;50211;52.768;12.124;2023-04-05T06:17:17;0.30;99.90
64012;DHT22;50211;52.768;12.124;2023-04-05T06:19:42;0.40;99.90
64012;DHT22;50211;52.768;12.124;2023-04-05T06:22:08;0.50;99.90
64012;DHT22;50211;52.768;12.124;2023-04-05T06:24:33;0.60;99.90
64012;DHT22;50211;52.768;12.124;2023-04-05T06:26:59;0.70;99.90
64012;DHT22;50211;52.768;12.124;2023-04-05T06:29:25;0.80;99.90
64012;DHT22;50211;52.768;12.124;2023-04-05T06:31:51;0.90;99.90
64012;DHT22;50211;52.768;12.124;2023-04-05T06:34:17;1.00;99.90
64012;DHT22;50211;52.768;12.124;2023-04-05T06:36:42;1.10;99.90
64012;DHT22;50211;52.768;12.124;2023-04-05T06:39:08;1.20;99.90
64012;DHT22;50211;52.768;12.124;2023-04-05T06:41:33;1.30;99.90
64012;DHT22;50211;52.768;12.124;2023-04-05T06:43:59;1.40;99.90
64012;DHT22;50211;52.768;12.124;2023-04-05T06:46:24;1.50;99.90
64012;DHT22;50211;52.768;12.124;2023-04-05T06:48:51;1.60;99.90
64012;DHT22;50211;52.768;12.124;2023-04-05T06:51:17;1.80;99.90
64012;DHT22;50211;52.768;12.124;2023-04-05T06:53:42;1.90;99.90
64012;DHT22;50211;52.768;12.124;2023-04-05T06:56:08;2.10;99.90
64012;DHT22;50211;52.768;12.124;2023-04-05T06:58:33;2.20;99.90
64012;DHT22;50211;52.768;12.124;2023-04-05T07:00:59;2.20;99.90
64012;DHT22;50211;52.768;12.124;2023-04-05T07:03:25;2.40;99.90
64012;DHT22;50211;52.768;12.124;2023-04-05T07:05:55;2.50;99.90
64012;DHT22;50211;52.768;12.124;2023-04-05T07:08:22;2.60;99.90
64012;DHT22;50211;52.768;12.124;2023-04-05T07:10:48;2.70;99.90
64012;DHT22;50211;52.768;12.124;2023-04-05T07:13:14;2.90;99.90
64012;DHT22;50211;52.768;12.124;2023-04-05T07:15:41;2.90;99.90
64012;DHT22;50211;52.768;12.124;2023-04-05T07:18:07;3.00;99.90
64012;DHT22;50211;52.768;12.124;2023-04-05T07:20:33;3.20;99.90
64012;DHT22;50211;52.768;12.124;2023-04-05T07:22:58;3.40;99.90
64012;DHT22;50211;52.768;12.124;2023-04-05T07:25:24;3.50;99.90
64012;DHT22;50211;52.768;12.124;2023-04-05T07:27:49;3.60;99.90
64012;DHT22;50211;52.768;12.124;2023-04-05T07:30:15;3.80;99.90
64012;DHT22;50211;52.768;12.124;2023-04-05T07:32:40;3.90;99.90
64012;DHT22;50211;52.768;12.124;2023-04-05T07:35:06;4.10;99.90
64012;DHT22;50211;52.768;12.124;2023-04-05T07:37:32;4.20;99.90
64012;DHT22;50211;52.768;12.124;2023-04-05T07:39:58;4.30;99.90
64012;DHT22;50211;52.768;12.124;2023-04-05T07:42:23;4.40;99.90
64012;DHT22;50211;52.768;12.124;2023-04-05T07:44:49;4.50;99.90
64012;DHT22;50211;52.768;12.124;2023-04-05T07:47:15;4.60;99.90
64012;DHT22;50211;52.768;12.124;2023-04-05T07:49:41;4.60;99.90
64012;DHT22;50211;52.768;12.124;2023-04-05T07:52:06;4.70;99.90
64012;DHT22;50211;52.768;12.124;2023-04-05T07:54:32;4.80;99.90
64012;DHT22;50211;52.768;12.124;2023-04-05T07:56:58;4.90;99.90
64012;DHT22;50211;52.768;12.124;2023-04-05T07:59:25;5.00;99.90
64012;DHT22;50211;52.768;12.124;2023-04-05T08:01:51;5.00;99.90
64012;DHT22;50211;52.768;12.124;2023-04-05T08:04:17;5.20;99.90
64012;DHT22;50211;52.768;12.124;2023-04-05T08:06:43;5.30;99.90
64012;DHT22;50211;52.768;12.124;2023-04-05T08:09:09;5.60;99.90
64012;DHT22;50211;52.768;12.124;2023-04-05T08:11:35;5.90;99.90
64012;DHT22;50211;52.768;12.124;2023-04-05T08:14:00;6.30;99.90
64012;DHT22;50211;52.768;12.124;2023-04-05T08:16:26;6.50;99.90
64012;DHT22;50211;52.768;12.124;2023-04-05T08:18:52;6.60;99.90
64012;DHT22;50211;52.768;12.124;2023-04-05T08:21:17;6.50;99.90
64012;DHT22;50211;52.768;12.124;2023-04-05T08:23:43;6.70;99.90
64012;DHT22;50211;52.768;12.124;2023-04-05T08:26:08;6.80;99.90
64012;DHT22;50211;52.768;12.124;2023-04-05T08:28:34;7.10;99.90
64012;DHT22;50211;52.768;12.124;2023-04-05T08:30:59;7.10;99.90
64012;DHT22;50211;52.768;12.124;2023-04-05T08:33:26;7.50;99.90
64012;DHT22;50211;52.768;12.124;2023-04-05T08:35:55;7.70;99.90
64012;DHT22;50211;52.768;12.124;2023-04-05T08:38:21;7.70;99.90
64012;DHT22;50211;52.768;12.124;2023-04-05T08:40:48;7.60;99.90
64012;DHT22;50211;52.768;12.124;2023-04-05T08:45:51;8.20;99.90
64012;DHT22;50211;52.768;12.124;2023-04-05T08:48:18;8.40;99.90
64012;DHT22;50211;52.768;12.124;2023-04-05T08:50:52;8.50;99.90
64012;DHT22;50211;52.768;12.124;2023-04-05T08:53:18;8.80;99.90
64012;DHT22;50211;52.768;12.124;2023-04-05T08:55:49;9.20;99.90
64012;DHT22;50211;52.768;12.124;2023-04-05T08:58:19;9.10;99.90
64012;DHT22;50211;52.768;12.124;2023-04-05T09:00:47;9.20;99.90
64012;DHT22;50211;52.768;12.124;2023-04-05T09:03:24;9.10;99.90
64012;DHT22;50211;52.768;12.124;2023-04-05T09:05:52;8.80;99.90
64012;DHT22;50211;52.768;12.124;2023-04-05T09:08:18;9.00;99.90
64012;DHT22;50211;52.768;12.124;2023-04-05T09:10:50;8.90;99.90
64012;DHT22;50211;52.768;12.124;2023-04-05T09:13:16;9.10;99.90
64012;DHT22;50211;52.768;12.124;2023-04-05T09:15:42;9.80;99.90
64012;DHT22;50211;52.768;12.124;2023-04-05T09:18:08;10.30;99.90
64012;DHT22;50211;52.768;12.124;2023-04-05T09:20:34;10.60;99.90
64012;DHT22;50211;52.768;12.124;2023-04-05T09:22:59;10.70;99.90
64012;DHT22;50211;52.768;12.124;2023-04-05T09:28:00;11.00;99.90
64012;DHT22;50211;52.768;12.124;2023-04-05T09:30:27;11.10;99.90
64012;DHT22;50211;52.768;12.124;2023-04-05T09:32:53;11.30;99.90
64012;DHT22;50211;52.768;12.124;2023-04-05T09:35:30;11.10;99.90
64012;DHT22;50211;52.768;12.124;2023-04-05T09:38:01;11.30;99.90
64012;DHT22;50211;52.768;12.124;2023-04-05T09:40:46;11.50;99.90
64012;DHT22;50211;52.768;12.124;2023-04-05T09:43:34;11.90;99.90
64012;DHT22;50211;52.768;12.124;2023-04-05T09:45:58;12.10;99.90
64012;DHT22;50211;52.768;12.124;2023-04-05T09:48:47;12.00;96.10
64012;DHT22;50211;52.768;12.124;2023-04-05T09:51:17;10.80;99.20
64012;DHT22;50211;52.768;12.124;2023-04-05T09:53:56;10.40;99.20
64012;DHT22;50211;52.768;12.124;2023-04-05T09:56:23;10.50;99.90
64012;DHT22;50211;52.768;12.124;2023-04-05T09:58:57;11.30;99.90
64012;DHT22;50211;52.768;12.124;2023-04-05T10:01:26;11.80;99.90
64012;DHT22;50211;52.768;12.124;2023-04-05T10:03:53;12.30;99.90
64012;DHT22;50211;52.768;12.124;2023-04-05T10:06:18;12.70;99.90
64012;DHT22;50211;52.768;12.124;2023-04-05T10:08:47;12.80;99.90
64012;DHT22;50211;52.768;12.124;2023-04-05T10:11:17;13.00;99.90
64012;DHT22;50211;52.768;12.124;2023-04-05T10:13:43;13.10;99.90
64012;DHT22;50211;52.768;12.124;2023-04-05T10:16:12;13.10;99.90
64012;DHT22;50211;52.768;12.124;2023-04-05T10:18:49;13.40;99.00
64012;DHT22;50211;52.768;12.124;2023-04-05T10:21:21;13.70;95.20
64012;DHT22;50211;52.768;12.124;2023-04-05T10:23:53;12.80;95.80
64012;DHT22;50211;52.768;12.124;2023-04-05T10:26:44;13.10;96.70
64012;DHT22;50211;52.768;12.124;2023-04-05T10:29:13;13.50;97.20
64012;DHT22;50211;52.768;12.124;2023-04-05T10:31:52;13.80;96.70
64012;DHT22;50211;52.768;12.124;2023-04-05T10:34:30;14.00;95.60
64012;DHT22;50211;52.768;12.124;2023-04-05T10:36:59;14.00;97.20
64012;DHT22;50211;52.768;12.124;2023-04-05T10:39:33;14.20;95.90
64012;DHT22;50211;52.768;12.124;2023-04-05T10:42:04;14.60;95.40
64012;DHT22;50211;52.768;12.124;2023-04-05T10:44:33;13.60;91.60
64012;DHT22;50211;52.768;12.124;2023-04-05T10:46:59;13.10;91.80
64012;DHT22;50211;52.768;12.124;2023-04-05T10:49:46;13.10;92.60
64012;DHT22;50211;52.768;12.124;2023-04-05T10:52:15;12.70;93.10
64012;DHT22;50211;52.768;12.124;2023-04-05T10:54:41;12.30;93.60
64012;DHT22;50211;52.768;12.124;2023-04-05T10:57:08;12.10;96.10
64012;DHT22;50211;52.768;12.124;2023-04-05T10:59:34;12.60;93.10
64012;DHT22;50211;52.768;12.124;2023-04-05T11:02:01;11.70;92.80
64012;DHT22;50211;52.768;12.124;2023-04-05T11:04:26;11.30;94.50
64012;DHT22;50211;52.768;12.124;2023-04-05T11:07:15;11.20;95.10
64012;DHT22;50211;52.768;12.124;2023-04-05T11:15:28;14.60;92.80
64012;DHT22;50211;52.768;12.124;2023-04-05T11:23:19;13.60;89.70
64012;DHT22;50211;52.768;12.124;2023-04-05T11:26:04;12.20;90.70
64012;DHT22;50211;52.768;12.124;2023-04-05T11:28:34;11.20;93.10
64012;DHT22;50211;52.768;12.124;2023-04-05T11:31:16;10.50;92.90
64012;DHT22;50211;52.768;12.124;2023-04-05T11:36:12;9.70;95.90
64012;DHT22;50211;52.768;12.124;2023-04-05T11:38:42;9.30;96.00
64012;DHT22;50211;52.768;12.124;2023-04-05T11:41:13;9.00;97.10
64012;DHT22;50211;52.768;12.124;2023-04-05T11:43:42;9.10;96.50
64012;DHT22;50211;52.768;12.124;2023-04-05T11:46:09;9.20;96.30
64012;DHT22;50211;52.768;12.124;2023-04-05T11:48:34;9.50;96.80
64012;DHT22;50211;52.768;12.124;2023-04-05T11:51:06;9.90;97.40
64012;DHT22;50211;52.768;12.124;2023-04-05T11:53:33;10.10;94.70
64012;DHT22;50211;52.768;12.124;2023-04-05T11:56:06;10.60;94.90
64012;DHT22;50211;52.768;12.124;2023-04-05T11:58:33;11.70;96.10
64012;DHT22;50211;52.768;12.124;2023-04-05T12:01:00;12.30;92.50
64012;DHT22;50211;52.768;12.124;2023-04-05T12:03:27;12.70;90.90
64012;DHT22;50211;52.768;12.124;2023-04-05T12:05:56;12.70;91.00
64012;DHT22;50211;52.768;12.124;2023-04-05T12:08:23;12.20;92.10
64012;DHT22;50211;52.768;12.124;2023-04-05T12:10:58;11.90;91.80
64012;DHT22;50211;52.768;12.124;2023-04-05T12:13:27;12.40;92.40
64012;DHT22;50211;52.768;12.124;2023-04-05T12:15:56;12.50;91.00
64012;DHT22;50211;52.768;12.124;2023-04-05T12:18:24;13.20;90.90
64012;DHT22;50211;52.768;12.124;2023-04-05T12:20:50;13.60;82.50
64012;DHT22;50211;52.768;12.124;2023-04-05T12:23:16;14.20;84.90
64012;DHT22;50211;52.768;12.124;2023-04-05T12:25:45;15.00;79.80
64012;DHT22;50211;52.768;12.124;2023-04-05T12:28:11;14.70;81.20
64012;DHT22;50211;52.768;12.124;2023-04-05T12:30:51;15.00;86.80
64012;DHT22;50211;52.768;12.124;2023-04-05T12:33:30;14.90;89.70
64012;DHT22;50211;52.768;12.124;2023-04-05T12:35:57;14.30;92.30
64012;DHT22;50211;52.768;12.124;2023-04-05T12:38:26;14.40;92.60
64012;DHT22;50211;52.768;12.124;2023-04-05T12:40:52;14.50;93.70
64012;DHT22;50211;52.768;12.124;2023-04-05T12:43:19;14.60;91.10
64012;DHT22;50211;52.768;12.124;2023-04-05T12:45:45;14.40;89.30
64012;DHT22;50211;52.768;12.124;2023-04-05T12:48:12;13.90;92.70
64012;DHT22;50211;52.768;12.124;2023-04-05T12:50:44;13.20;92.30
64012;DHT22;50211;52.768;12.124;2023-04-05T12:53:15;12.90;91.00
64012;DHT22;50211;52.768;12.124;2023-04-05T12:55:52;12.60;91.90
64012;DHT22;50211;52.768;12.124;2023-04-05T12:58:19;12.40;93.60
64012;DHT22;50211;52.768;12.124;2023-04-05T13:00:45;12.10;93.50
64012;DHT22;50211;52.768;12.124;2023-04-05T13:03:18;12.10;94.10
64012;DHT22;50211;52.768;12.124;2023-04-05T13:05:48;12.20;92.60
64012;DHT22;50211;52.768;12.124;2023-04-05T13:08:14;12.30;93.70
64012;DHT22;50211;52.768;12.124;2023-04-05T13:10:40;12.10;92.90
64012;DHT22;50211;52.768;12.124;2023-04-05T13:13:05;12.10;94.50
64012;DHT22;50211;52.768;12.124;2023-04-05T13:15:31;11.80;90.70
64012;DHT22;50211;52.768;12.124;2023-04-05T13:17:57;11.30;93.00
64012;DHT22;50211;52.768;12.124;2023-04-05T13:20:23;11.10;94.20
64012;DHT22;50211;52.768;12.124;2023-04-05T13:22:49;11.10;95.70
64012;DHT22;50211;52.768;12.124;2023-04-05T13:25:15;11.10;94.40
64012;DHT22;50211;52.768;12.124;2023-04-05T13:27:41;11.10;92.10
64012;DHT22;50211;52.768;12.124;2023-04-05T13:30:07;11.10;95.40
64012;DHT22;50211;52.768;12.124;2023-04-05T13:32:33;11.00;95.70
64012;DHT22;50211;52.768;12.124;2023-04-05T13:34:58;10.90;94.30
64012;DHT22;50211;52.768;12.124;2023-04-05T13:37:24;10.70;94.00
64012;DHT22;50211;52.768;12.124;2023-04-05T13:39:50;10.50;95.20
64012;DHT22;50211;52.768;12.124;2023-04-05T13:42:15;10.40;95.10
64012;DHT22;50211;52.768;12.124;2023-04-05T13:44:41;10.30;95.40
64012;DHT22;50211;52.768;12.124;2023-04-05T13:47:07;10.20;95.60
64012;DHT22;50211;52.768;12.124;2023-04-05T13:49:33;10.10;97.20
64012;DHT22;50211;52.768;12.124;2023-04-05T13:51:58;10.20;94.70
64012;DHT22;50211;52.768;12.124;2023-04-05T13:54:24;10.20;95.70
64012;DHT22;50211;52.768;12.124;2023-04-05T13:56:50;10.30;95.80
64012;DHT22;50211;52.768;12.124;2023-04-05T13:59:15;10.20;93.50
64012;DHT22;50211;52.768;12.124;2023-04-05T14:01:45;10.00;93.60
64012;DHT22;50211;52.768;12.124;2023-04-05T14:04:11;9.70;93.00
64012;DHT22;50211;52.768;12.124;2023-04-05T14:06:36;9.60;94.10
64012;DHT22;50211;52.768;12.124;2023-04-05T14:09:02;9.40;94.60
64012;DHT22;50211;52.768;12.124;2023-04-05T14:11:28;9.10;93.30
64012;DHT22;50211;52.768;12.124;2023-04-05T14:13:53;9.10;93.90
64012;DHT22;50211;52.768;12.124;2023-04-05T14:16:19;9.10;94.20
64012;DHT22;50211;52.768;12.124;2023-04-05T14:18:45;8.90;93.60
64012;DHT22;50211;52.768;12.124;2023-04-05T14:21:10;9.00;93.50
64012;DHT22;50211;52.768;12.124;2023-04-05T14:23:36;9.20;93.10
64012;DHT22;50211;52.768;12.124;2023-04-05T14:26:02;9.40;93.10
64012;DHT22;50211;52.768;12.124;2023-04-05T14:28:27;9.60;92.90
64012;DHT22;50211;52.768;12.124;2023-04-05T14:30:53;9.90;92.40
64012;DHT22;50211;52.768;12.124;2023-04-05T14:33:18;10.10;92.90
64012;DHT22;50211;52.768;12.124;2023-04-05T14:35:44;10.80;93.10
64012;DHT22;50211;52.768;12.124;2023-04-05T14:38:10;11.70;93.20
64012;DHT22;50211;52.768;12.124;2023-04-05T14:40:35;12.60;91.50
64012;DHT22;50211;52.768;12.124;2023-04-05T14:43:01;13.30;88.00
64012;DHT22;50211;52.768;12.124;2023-04-05T14:45:27;13.90;87.30
64012;DHT22;50211;52.768;12.124;2023-04-05T14:47:53;14.50;88.00
64012;DHT22;50211;52.768;12.124;2023-04-05T14:50:19;14.70;81.30
64012;DHT22;50211;52.768;12.124;2023-04-05T14:52:44;14.60;82.30
64012;DHT22;50211;52.768;12.124;2023-04-05T14:55:10;13.70;86.10
64012;DHT22;50211;52.768;12.124;2023-04-05T14:57:38;12.60;82.50
64012;DHT22;50211;52.768;12.124;2023-04-05T15:00:05;12.20;84.80
64012;DHT22;50211;52.768;12.124;2023-04-05T15:02:31;11.80;85.00
64012;DHT22;50211;52.768;12.124;2023-04-05T15:04:57;12.40;88.60
64012;DHT22;50211;52.768;12.124;2023-04-05T15:07:25;12.80;83.80
64012;DHT22;50211;52.768;12.124;2023-04-05T15:09:50;13.10;84.80
64012;DHT22;50211;52.768;12.124;2023-04-05T15:12:16;13.20;82.30
64012;DHT22;50211;52.768;12.124;2023-04-05T15:14:42;13.10;82.70
64012;DHT22;50211;52.768;12.124;2023-04-05T15:17:10;13.10;83.40
64012;DHT22;50211;52.768;12.124;2023-04-05T15:19:35;13.50;81.90
64012;DHT22;50211;52.768;12.124;2023-04-05T15:22:01;14.00;83.60
64012;DHT22;50211;52.768;12.124;2023-04-05T15:24:27;13.50;83.70
64012;DHT22;50211;52.768;12.124;2023-04-05T15:26:52;14.00;79.40
64012;DHT22;50211;52.768;12.124;2023-04-05T15:29:22;13.60;79.30
64012;DHT22;50211;52.768;12.124;2023-04-05T15:31:48;13.60;83.90
64012;DHT22;50211;52.768;12.124;2023-04-05T15:34:13;12.70;80.60
64012;DHT22;50211;52.768;12.124;2023-04-05T15:36:39;12.00;80.20
64012;DHT22;50211;52.768;12.124;2023-04-05T15:39:06;11.70;82.40
64012;DHT22;50211;52.768;12.124;2023-04-05T15:41:32;11.30;83.90
64012;DHT22;50211;52.768;12.124;2023-04-05T15:43:58;10.50;83.80
64012;DHT22;50211;52.768;12.124;2023-04-05T15:46:24;10.30;87.00
64012;DHT22;50211;52.768;12.124;2023-04-05T15:48:49;10.10;87.20
64012;DHT22;50211;52.768;12.124;2023-04-05T15:51:15;10.20;86.00